2022年5月28日

时间 代码 天气 温度 能见度 天花板 METAR/SPECI
6:00 上午
L
45 °F ¾ mi - Var Var 2 kt METAR LFLW 280400Z AUTO VRB02KT 8000 1300 R15/P2000 NSC 07/07 Q1019
5:30 上午
V
46 °F 5⅝ mi - 100° 100° 2 kt METAR LFLW 280330Z AUTO 10002KT 9000 NSC 08/07 Q1019
5:00 上午
V
46 °F 6¼ mi+ - 130° 130° 3 kt METAR LFLW 280300Z AUTO 13003KT CAVOK 08/07 Q1020
4:30 上午
V
46 °F 6¼ mi+ - 110° 110° 1 kt METAR LFLW 280230Z AUTO 11001KT CAVOK 08/07 Q1020
4:00 上午
V
46 °F 6¼ mi+ - Var Var 1 kt METAR LFLW 280200Z AUTO VRB01KT CAVOK 08/08 Q1020
3:30 上午
V
48 °F 6¼ mi+ - Var Var 2 kt METAR LFLW 280130Z AUTO VRB02KT CAVOK 09/08 Q1021
3:00 上午
V
50 °F 6¼ mi+ - Var Var 2 kt METAR LFLW 280100Z AUTO VRB02KT CAVOK 10/08 Q1021
2:30 上午
V
52 °F 6¼ mi+ - 210° 210° 3 kt METAR LFLW 280030Z AUTO 21003KT CAVOK 11/10 Q1021
2:00 上午
V
52 °F 6¼ mi+ - Var 000° 0 kt METAR LFLW 280000Z AUTO 00000KT CAVOK 11/10 Q1021
1:30 上午
V
52 °F 6¼ mi+ - Var Var 3 kt METAR LFLW 272330Z AUTO VRB03KT CAVOK 11/10 Q1022
1:00 上午
V
52 °F 6¼ mi+ - Var Var 2 kt METAR LFLW 272300Z AUTO VRB02KT CAVOK 11/09 Q1022
12:30 上午
V
54 °F 6¼ mi+ - Var Var 2 kt METAR LFLW 272230Z AUTO VRB02KT CAVOK 12/09 Q1022
12:00 上午
V
55 °F 6¼ mi+ - Var Var 2 kt METAR LFLW 272200Z AUTO VRB02KT CAVOK 13/10 Q1022

2022年5月27日

时间 代码 天气 温度 能见度 天花板 METAR/SPECI
11:30 下午
V
59 °F 6¼ mi+ - 260° 260° 2 kt METAR LFLW 272130Z AUTO 26002KT CAVOK 15/10 Q1022
11:00 下午
V
61 °F 6¼ mi+ - Var Var 3 kt METAR LFLW 272100Z AUTO VRB03KT CAVOK 16/10 Q1022
10:30 下午
V
63 °F 6¼ mi+ - 310° 310° 4 kt METAR LFLW 272030Z AUTO 31004KT 280V340 CAVOK 17/10 Q1022
10:00 下午
V
64 °F 6¼ mi+ - 310° 310° 4 kt METAR LFLW 272000Z AUTO 31004KT 280V350 CAVOK 18/10 Q1022
9:30 下午
V
66 °F 6¼ mi+ - 310° 310° 4 kt METAR LFLW 271930Z AUTO 31004KT 270V350 CAVOK 19/10 Q1022
9:00 下午
V
68 °F 6¼ mi+ - 320° 320° 5 kt METAR LFLW 271900Z AUTO 32005KT 270V360 CAVOK 20/10 Q1022
8:30 下午
V
70 °F 6¼ mi+ - 320° 320° 6 kt METAR LFLW 271830Z AUTO 32006KT 280V350 CAVOK 21/11 Q1022
8:00 下午
V
72 °F 6¼ mi+ - 320° 320° 8 kt METAR LFLW 271800Z AUTO 32008KT 270V360 CAVOK 22/11 Q1022
7:30 下午
V
72 °F 6¼ mi+ - 340° 340° 10 kt METAR LFLW 271730Z AUTO 34010KT CAVOK 22/11 Q1022
7:00 下午
V
73 °F 6¼ mi+ - 330° 330° 8 kt METAR LFLW 271700Z AUTO 33008KT 280V360 CAVOK 23/12 Q1022 NOSIG
6:30 下午
V
75 °F 6¼ mi+ - 310° 310° 9 kt METAR LFLW 271630Z AUTO 31009KT 280V350 CAVOK 24/12 Q1022 NOSIG
6:00 下午
V
75 °F 6¼ mi+ - 330° 330° 9 kt METAR LFLW 271600Z AUTO 33009KT 290V040 CAVOK 24/13 Q1022 NOSIG
5:30 下午
V
75 °F 6¼ mi+ - 320° 320° 8 kt METAR LFLW 271530Z AUTO 32008KT 280V010 CAVOK 24/13 Q1022 NOSIG
5:00 下午
V
75 °F 6¼ mi+ - 330° 330° 8 kt METAR LFLW 271500Z AUTO 33008KT 260V360 CAVOK 24/13 Q1022 NOSIG
4:30 下午
V
75 °F 6¼ mi+ - 310° 310° 9 kt METAR LFLW 271430Z AUTO 31009KT 260V350 CAVOK 24/12 Q1023 NOSIG
较旧的数据

下载我们的应用程序

在您的手机和平板电脑上轻松访问所有航空天气。
有许多网站上没有的功能,如离线支持和个人机场列表。

Studio Eveline

Benalmádena
España

我们和第三方通过cookies跟踪您在我们网站上的上网行为。如果您继续,我们认为您同意我们的cookie政策。 了解更多